Terminal Aerodrome Forecast
Issued by NWS Upton, NY

Home | Current Version | Previous Version | Text Only | Print | Product List | Glossary On
Versions: 1 2 3 4 5 6 7 8 9 10 11 12 13 14 15 16 17 18 19 20 21 22 23 24 25 26 27 28 29 30 31 32 33 34 35 36 37 38 39 40
000
FTUS41 KOKX 060239 AAA
TAFLGA
TAF AMD
KLGA 060239Z 0603/0624 04014KT P6SM -RA OVC025
     FM060500 03010KT P6SM -RA OVC015
     FM060800 03014KT 3SM -RA BR SCT005 OVC009
     FM061200 05017KT 2SM RA BR OVC008
     FM061800 06018KT 1SM -RA BR OVC006=

USA.gov is the U.S. government's official web portal to all federal, state and local government web resources and services.